createdAt,value
2019-03-25T00:00:40.796Z,60.96
2019-03-25T00:01:40.725Z,60.93
2019-03-25T00:02:40.647Z,61.31
2019-03-25T00:03:40.574Z,61.31
2019-03-25T00:04:40.506Z,61.05
2019-03-25T00:05:40.435Z,60.54
2019-03-25T00:06:40.382Z,60.44
2019-03-25T00:07:40.309Z,60.44
2019-03-25T00:08:40.231Z,60.83
2019-03-25T00:09:40.159Z,60.83
2019-03-25T00:10:40.102Z,60.54
2019-03-25T00:11:40.027Z,60.83
2019-03-25T00:12:39.962Z,60.54
2019-03-25T00:13:39.895Z,60.83
2019-03-25T00:14:39.807Z,60.54
2019-03-25T00:15:39.741Z,61.31
2019-03-25T00:16:39.695Z,60.44
2019-03-25T00:17:39.610Z,60.54
2019-03-25T00:18:39.551Z,60.83
2019-03-25T00:19:39.476Z,60.35
2019-03-25T00:20:39.408Z,60.25
2019-03-25T00:21:39.340Z,59.77
2019-03-25T00:22:39.258Z,59.87
2019-03-25T00:23:39.185Z,59.97
2019-03-25T00:24:39.318Z,60.16
2019-03-25T00:25:39.058Z,59.87
2019-03-25T00:26:38.979Z,59.77
2019-03-25T00:27:38.908Z,59.87
2019-03-25T00:28:38.837Z,59.68
2019-03-25T00:29:38.769Z,59.68
2019-03-25T00:30:38.711Z,59.48
2019-03-25T00:31:38.646Z,59.75
2019-03-25T00:32:38.559Z,60.44
2019-03-25T00:33:38.494Z,59.77
2019-03-25T00:34:38.432Z,59.75
2019-03-25T00:35:38.364Z,59.97
2019-03-25T00:36:38.292Z,60.25
2019-03-25T00:37:38.226Z,59.20
2019-03-25T00:38:38.145Z,59.55
2019-03-25T00:39:38.072Z,60.13
2019-03-25T00:40:38.018Z,60.13
2019-03-25T00:41:37.960Z,59.65
2019-03-25T00:42:37.883Z,60.22
2019-03-25T00:43:37.795Z,60.22
2019-03-25T00:44:37.725Z,60.51
2019-03-25T00:45:37.654Z,60.13
2019-03-25T00:46:37.599Z,60.13
2019-03-25T00:47:37.532Z,60.03
2019-03-25T00:48:37.458Z,60.22
2019-03-25T00:49:37.401Z,60.22
2019-03-25T00:50:37.308Z,59.75
2019-03-25T00:51:37.239Z,60.32
2019-03-25T00:52:37.169Z,59.27
2019-03-25T00:53:37.098Z,59.65
2019-03-25T00:54:37.045Z,59.45
2019-03-25T00:55:36.970Z,59.65
2019-03-25T00:56:36.889Z,59.65
2019-03-25T00:57:36.823Z,59.45
2019-03-25T00:58:36.762Z,59.36
2019-03-25T00:59:36.696Z,59.68
2019-03-25T01:00:36.622Z,58.88
2019-03-25T01:01:36.562Z,58.98
2019-03-25T01:02:36.473Z,58.69
2019-03-25T01:03:36.403Z,59.08
2019-03-25T01:04:36.397Z,58.98
2019-03-25T01:05:36.262Z,58.98
2019-03-25T01:06:36.228Z,59.08
2019-03-25T01:07:36.153Z,58.79
2019-03-25T01:08:36.083Z,59.08
2019-03-25T01:09:35.997Z,59.17
2019-03-25T01:10:35.911Z,59.84
2019-03-25T01:11:35.841Z,59.45
2019-03-25T01:12:35.790Z,59.55
2019-03-25T01:13:35.718Z,59.75
2019-03-25T01:14:35.635Z,59.55
2019-03-25T01:15:35.565Z,59.75
2019-03-25T01:16:35.495Z,59.17
2019-03-25T01:17:35.425Z,58.79
2019-03-25T01:18:35.369Z,58.98
2019-03-25T01:19:35.294Z,58.98
2019-03-25T01:20:35.231Z,59.08
2019-03-25T01:21:35.166Z,58.98
2019-03-25T01:22:35.077Z,58.98
2019-03-25T01:23:35.006Z,59.08
2019-03-25T01:24:34.937Z,59.36
2019-03-25T01:25:34.867Z,59.94
2019-03-25T01:26:34.809Z,59.94
2019-03-25T01:27:34.738Z,58.98
2019-03-25T01:28:34.658Z,59.17
2019-03-25T01:29:34.587Z,59.17
2019-03-25T01:30:34.531Z,58.79
2019-03-25T01:31:34.459Z,59.23
2019-03-25T01:32:34.392Z,59.17
2019-03-25T01:33:34.356Z,59.75
2019-03-25T01:34:34.308Z,59.62
2019-03-25T01:35:34.169Z,59.65
2019-03-25T01:36:34.113Z,59.65
2019-03-25T01:37:34.069Z,59.84
2019-03-25T01:38:33.959Z,58.88
2019-03-25T01:39:33.891Z,58.98
2019-03-25T01:40:33.821Z,58.69
2019-03-25T01:41:33.750Z,58.98
2019-03-25T01:42:33.693Z,58.79
2019-03-25T01:43:33.618Z,58.69
2019-03-25T01:44:33.541Z,58.88
2019-03-25T01:45:33.471Z,58.79
2019-03-25T01:46:33.414Z,58.79
2019-03-25T01:47:33.343Z,58.88
2019-03-25T01:48:33.280Z,58.79
2019-03-25T01:49:33.210Z,58.86
2019-03-25T01:50:33.119Z,59.14
2019-03-25T01:51:33.054Z,59.08
2019-03-25T01:52:32.997Z,59.17
2019-03-25T01:53:32.911Z,59.08
2019-03-25T01:54:32.857Z,59.14
2019-03-25T01:55:32.784Z,59.14
2019-03-25T01:56:32.713Z,59.14
2019-03-25T01:57:32.645Z,59.14
2019-03-25T01:58:32.567Z,59.33
2019-03-25T01:59:32.495Z,59.33
2019-03-25T02:00:32.470Z,59.14
2019-03-25T02:01:32.372Z,58.88
2019-03-25T02:02:32.285Z,59.17
2019-03-25T02:03:32.215Z,58.40
2019-03-25T02:04:32.145Z,58.40
2019-03-25T02:05:32.075Z,58.59
2019-03-25T02:06:32.018Z,58.69
2019-03-25T02:07:31.946Z,58.59
2019-03-25T02:08:31.875Z,58.59
2019-03-25T02:09:31.795Z,58.50
2019-03-25T02:10:31.739Z,58.50
2019-03-25T02:11:31.667Z,58.22
2019-03-25T02:12:31.603Z,58.59
2019-03-25T02:13:31.532Z,58.69
2019-03-25T02:14:31.447Z,58.59
2019-03-25T02:15:31.377Z,58.79
2019-03-25T02:16:31.318Z,58.79
2019-03-25T02:17:31.244Z,58.69
2019-03-25T02:18:31.169Z,58.76
2019-03-25T02:19:31.099Z,59.14
2019-03-25T02:20:31.027Z,59.43
2019-03-25T02:21:30.957Z,59.43
2019-03-25T02:22:30.950Z,59.52
2019-03-25T02:23:32.047Z,59.62
2019-03-25T02:24:30.757Z,59.62
2019-03-25T02:25:30.692Z,59.14
2019-03-25T02:26:30.646Z,59.43
2019-03-25T02:27:30.539Z,59.43
2019-03-25T02:28:30.469Z,59.81
2019-03-25T02:29:30.399Z,59.62
2019-03-25T02:30:32.487Z,58.98
2019-03-25T02:31:30.268Z,59.14
2019-03-25T02:32:30.192Z,59.17
2019-03-25T02:33:30.123Z,59.17
2019-03-25T02:34:30.069Z,58.69
2019-03-25T02:35:29.997Z,58.98
2019-03-25T02:36:29.919Z,58.69
2019-03-25T02:37:29.849Z,58.98
2019-03-25T02:38:29.771Z,58.98
2019-03-25T02:39:29.702Z,58.88
2019-03-25T02:40:29.648Z,58.98
2019-03-25T02:41:29.573Z,58.59
2019-03-25T02:42:29.493Z,59.23
2019-03-25T02:43:29.424Z,58.79
2019-03-25T02:44:29.350Z,58.98
2019-03-25T02:45:29.279Z,59.81
2019-03-25T02:46:29.223Z,60.10
2019-03-25T02:47:29.155Z,60.48
2019-03-25T02:48:29.080Z,60.77
2019-03-25T02:49:28.998Z,60.77
2019-03-25T02:50:28.950Z,60.38
2019-03-25T02:51:28.876Z,60.58
2019-03-25T02:52:28.813Z,59.91
2019-03-25T02:53:28.731Z,59.52
2019-03-25T02:54:28.651Z,59.72
2019-03-25T02:55:40.803Z,60.00
2019-03-25T02:56:28.514Z,60.38
2019-03-25T02:57:28.440Z,60.29
2019-03-25T02:58:28.456Z,60.29
2019-03-25T02:59:28.309Z,60.58
2019-03-25T03:00:28.240Z,60.67
2019-03-25T03:01:28.177Z,60.64
2019-03-25T03:02:28.091Z,60.96
2019-03-25T03:03:28.021Z,61.31
2019-03-25T03:04:27.958Z,60.74
2019-03-25T03:05:27.890Z,60.93
2019-03-25T03:06:27.809Z,61.31
2019-03-25T03:07:27.752Z,61.69
2019-03-25T03:08:27.666Z,61.22
2019-03-25T03:09:27.607Z,61.79
2019-03-25T03:10:27.544Z,61.98
2019-03-25T03:11:27.476Z,62.27
2019-03-25T03:12:27.394Z,61.88
2019-03-25T03:13:27.327Z,61.79
2019-03-25T03:14:27.255Z,61.69
2019-03-25T03:15:27.177Z,61.60
2019-03-25T03:16:27.114Z,61.88
2019-03-25T03:17:27.041Z,61.88
2019-03-25T03:18:26.986Z,61.79
2019-03-25T03:19:27.015Z,61.79
2019-03-25T03:20:26.828Z,61.88
2019-03-25T03:21:26.754Z,62.27
2019-03-25T03:22:26.696Z,62.08
2019-03-25T03:23:26.629Z,61.22
2019-03-25T03:24:26.559Z,61.31
2019-03-25T03:25:26.484Z,61.51
2019-03-25T03:26:26.402Z,61.41
2019-03-25T03:27:29.727Z,61.88
2019-03-25T03:28:26.261Z,61.98
2019-03-25T03:29:26.209Z,62.37
2019-03-25T03:30:26.286Z,62.37
2019-03-25T03:31:26.080Z,62.46
2019-03-25T03:32:25.998Z,62.27
2019-03-25T03:33:25.919Z,62.08
2019-03-25T03:34:25.921Z,62.08
2019-03-25T03:35:25.776Z,61.88
2019-03-25T03:36:25.711Z,61.79
2019-03-25T03:37:25.642Z,61.98
2019-03-25T03:38:25.554Z,62.37
2019-03-25T03:39:25.495Z,62.37
2019-03-25T03:40:25.419Z,61.91
2019-03-25T03:41:25.348Z,61.91
2019-03-25T03:42:25.369Z,61.72
2019-03-25T03:43:25.245Z,62.11
2019-03-25T03:44:25.139Z,61.34
2019-03-25T03:45:25.068Z,61.34
2019-03-25T03:46:25.018Z,62.20
2019-03-25T03:47:24.939Z,61.69
2019-03-25T03:48:24.863Z,62.46
2019-03-25T03:49:24.801Z,62.55
2019-03-25T03:50:24.716Z,62.84
2019-03-25T03:51:24.647Z,62.74
2019-03-25T03:52:24.583Z,63.03
2019-03-25T03:53:24.542Z,63.03
2019-03-25T03:54:24.434Z,63.32
2019-03-25T03:55:24.362Z,63.13
2019-03-25T03:56:24.293Z,62.94
2019-03-25T03:57:24.222Z,63.70
2019-03-25T03:58:24.163Z,63.89
2019-03-25T03:59:24.090Z,63.51
2019-03-25T04:00:24.027Z,63.89
2019-03-25T04:01:23.949Z,63.57
2019-03-25T04:02:23.868Z,63.60
2019-03-25T04:03:23.803Z,63.48
2019-03-25T04:04:23.731Z,63.99
2019-03-25T04:05:23.657Z,63.96
2019-03-25T04:06:23.599Z,63.99
2019-03-25T04:07:23.529Z,63.89
2019-03-25T04:08:23.450Z,63.89
2019-03-25T04:09:23.372Z,63.80
2019-03-25T04:10:23.316Z,63.42
2019-03-25T04:11:23.253Z,63.42
2019-03-25T04:12:23.179Z,63.60
2019-03-25T04:13:23.157Z,63.60
2019-03-25T04:14:23.053Z,64.18
2019-03-25T04:15:22.957Z,63.89
2019-03-25T04:16:22.892Z,64.28
2019-03-25T04:17:22.830Z,63.99
2019-03-25T04:18:22.738Z,63.89
2019-03-25T04:19:22.674Z,63.70
2019-03-25T04:20:22.610Z,63.99
2019-03-25T04:21:22.533Z,64.82
2019-03-25T04:22:22.468Z,64.72
2019-03-25T04:23:22.403Z,64.82
2019-03-25T04:24:22.330Z,64.91
2019-03-25T04:25:22.245Z,64.72
2019-03-25T04:26:28.308Z,64.82
2019-03-25T04:27:22.115Z,65.48
2019-03-25T04:28:22.053Z,65.11
2019-03-25T04:29:21.973Z,65.39
2019-03-25T04:30:21.890Z,65.20
2019-03-25T04:31:21.819Z,65.11
2019-03-25T04:32:21.748Z,65.39
2019-03-25T04:33:21.698Z,65.39
2019-03-25T04:34:21.616Z,65.30
2019-03-25T04:35:21.546Z,65.30
2019-03-25T04:36:21.474Z,65.30
2019-03-25T04:37:21.410Z,66.06
2019-03-25T04:38:21.325Z,66.25
2019-03-25T04:39:21.251Z,66.06
2019-03-25T04:40:21.193Z,66.44
2019-03-25T04:41:21.121Z,66.25
2019-03-25T04:42:21.040Z,66.44
2019-03-25T04:43:20.972Z,66.54
2019-03-25T04:44:20.897Z,67.18
2019-03-25T04:45:20.827Z,67.02
2019-03-25T04:46:20.768Z,67.11
2019-03-25T04:47:20.698Z,66.79
2019-03-25T04:48:20.613Z,66.99
2019-03-25T04:49:20.541Z,67.75
2019-03-25T04:50:20.484Z,67.55
2019-03-25T04:51:20.415Z,68.13
2019-03-25T04:52:20.341Z,68.23
2019-03-25T04:53:20.268Z,68.13
2019-03-25T04:54:20.192Z,68.23
2019-03-25T04:55:20.114Z,68.99
2019-03-25T04:56:20.076Z,68.61
2019-03-25T04:57:19.979Z,68.70
2019-03-25T04:58:19.904Z,68.51
2019-03-25T04:59:19.831Z,68.23
2019-03-25T05:00:19.756Z,69.15
2019-03-25T05:01:19.684Z,68.86
2019-03-25T05:02:19.629Z,68.86
2019-03-25T05:03:19.551Z,69.18
2019-03-25T05:04:19.489Z,69.27
2019-03-25T05:05:19.414Z,69.62
2019-03-25T05:06:19.330Z,69.72
2019-03-25T05:07:19.256Z,69.53
2019-03-25T05:08:19.190Z,69.72
2019-03-25T05:09:19.114Z,69.62
2019-03-25T05:10:19.055Z,69.91
2019-03-25T05:11:30.103Z,69.91
2019-03-25T05:12:18.900Z,70.20
2019-03-25T05:13:18.828Z,70.23
2019-03-25T05:14:18.770Z,69.95
2019-03-25T05:15:18.699Z,70.10
2019-03-25T05:16:18.769Z,70.29
2019-03-25T05:17:18.553Z,70.42
2019-03-25T05:18:18.473Z,70.39
2019-03-25T05:19:18.404Z,70.58
2019-03-25T05:20:18.332Z,70.29
2019-03-25T05:21:18.256Z,70.39
2019-03-25T05:22:18.196Z,71.25
2019-03-25T05:23:18.119Z,71.15
2019-03-25T05:24:18.051Z,71.34
2019-03-25T05:25:17.981Z,71.34
2019-03-25T05:26:17.898Z,71.82
2019-03-25T05:27:17.826Z,71.53
2019-03-25T05:28:17.771Z,71.34
2019-03-25T05:29:17.695Z,71.82
2019-03-25T05:30:17.610Z,71.92
2019-03-25T05:31:17.538Z,72.01
2019-03-25T05:32:17.468Z,71.72
2019-03-25T05:33:17.396Z,72.20
2019-03-25T05:34:17.341Z,72.78
2019-03-25T05:35:17.265Z,72.68
2019-03-25T05:36:17.194Z,72.58
2019-03-25T05:37:17.117Z,72.97
2019-03-25T05:38:17.034Z,73.35
2019-03-25T05:39:16.964Z,72.87
2019-03-25T05:40:16.894Z,73.54
2019-03-25T05:41:16.819Z,73.73
2019-03-25T05:42:16.760Z,73.25
2019-03-25T05:43:16.687Z,73.25
2019-03-25T05:44:16.609Z,73.35
2019-03-25T05:45:16.531Z,73.73
2019-03-25T05:46:16.469Z,73.73
2019-03-25T05:47:16.402Z,73.92
2019-03-25T05:48:16.334Z,73.73
2019-03-25T05:49:16.341Z,73.44
2019-03-25T05:50:16.190Z,74.02
2019-03-25T05:51:16.141Z,73.73
2019-03-25T05:52:16.042Z,74.30
2019-03-25T05:53:16.107Z,74.30
2019-03-25T05:54:15.882Z,74.49
2019-03-25T05:55:15.816Z,75.07
2019-03-25T05:56:15.750Z,75.07
2019-03-25T05:57:15.668Z,74.78
2019-03-25T05:58:15.651Z,74.59
2019-03-25T05:59:15.538Z,75.54
2019-03-25T06:00:15.454Z,75.74
2019-03-25T06:01:15.382Z,76.21
2019-03-25T06:02:15.322Z,76.03
2019-03-25T06:03:15.249Z,76.31
2019-03-25T06:04:15.207Z,76.12
2019-03-25T06:05:15.105Z,76.40
2019-03-25T06:06:15.022Z,76.46
2019-03-25T06:07:14.951Z,76.69
2019-03-25T06:08:14.880Z,77.08
2019-03-25T06:09:14.808Z,76.88
2019-03-25T06:10:14.745Z,76.69
2019-03-25T06:11:14.673Z,76.50
2019-03-25T06:12:14.597Z,76.98
2019-03-25T06:13:14.527Z,77.17
2019-03-25T06:14:14.444Z,76.98
2019-03-25T06:15:14.370Z,76.88
2019-03-25T06:16:14.314Z,76.88
2019-03-25T06:17:14.244Z,77.36
2019-03-25T06:18:14.158Z,77.84
2019-03-25T06:19:14.088Z,77.74
2019-03-25T06:20:14.008Z,78.09
2019-03-25T06:21:13.938Z,78.56
2019-03-25T06:22:13.880Z,78.66
2019-03-25T06:23:13.878Z,78.31
2019-03-25T06:24:13.764Z,78.31
2019-03-25T06:25:13.704Z,78.41
2019-03-25T06:26:13.717Z,78.51
2019-03-25T06:27:14.558Z,78.41
2019-03-25T06:28:13.525Z,78.70
2019-03-25T06:29:13.468Z,78.79
2019-03-25T06:30:13.330Z,78.89
2019-03-25T06:31:13.224Z,78.13
2019-03-25T06:32:13.163Z,78.85
2019-03-25T06:33:13.087Z,78.99
2019-03-25T06:34:13.004Z,78.99
2019-03-25T06:35:13.075Z,78.70
2019-03-25T06:36:13.052Z,79.17
2019-03-25T06:37:12.827Z,79.17
2019-03-25T06:38:13.193Z,78.89
2019-03-25T06:39:12.663Z,78.60
2019-03-25T06:40:12.635Z,78.60
2019-03-25T06:41:12.541Z,78.70
2019-03-25T06:42:12.441Z,78.13
2019-03-25T06:43:12.612Z,78.70
2019-03-25T06:44:12.320Z,78.41
2019-03-25T06:45:12.528Z,78.60
2019-03-25T06:46:12.162Z,78.31
2019-03-25T06:47:12.076Z,78.89
2019-03-25T06:48:12.008Z,78.89
2019-03-25T06:49:11.923Z,79.08
2019-03-25T06:50:11.864Z,79.08
2019-03-25T06:51:11.797Z,78.70
2019-03-25T06:52:11.720Z,78.60
2019-03-25T06:53:11.654Z,78.31
2019-03-25T06:54:11.564Z,79.27
2019-03-25T06:55:11.493Z,79.85
2019-03-25T06:56:11.437Z,79.46
2019-03-25T06:57:11.362Z,78.99
2019-03-25T06:58:11.279Z,79.27
2019-03-25T06:59:11.206Z,79.17
2019-03-25T07:00:11.135Z,79.17
2019-03-25T07:01:11.062Z,78.89
2019-03-25T07:02:11.005Z,78.64
2019-03-25T07:03:10.929Z,78.45
2019-03-25T07:04:10.864Z,78.16
2019-03-25T07:05:10.778Z,77.69
2019-03-25T07:06:10.719Z,77.11
2019-03-25T07:07:10.647Z,77.01
2019-03-25T07:08:10.578Z,77.40
2019-03-25T07:09:10.504Z,77.34
2019-03-25T07:10:10.422Z,77.63
2019-03-25T07:11:10.353Z,77.15
2019-03-25T07:12:10.281Z,76.96
2019-03-25T07:13:10.209Z,77.11
2019-03-25T07:14:10.152Z,77.11
2019-03-25T07:15:10.076Z,77.53
2019-03-25T07:16:10.007Z,77.34
2019-03-25T07:17:09.934Z,77.30
2019-03-25T07:18:09.852Z,77.40
2019-03-25T07:19:09.791Z,77.69
2019-03-25T07:20:09.719Z,77.97
2019-03-25T07:21:09.653Z,77.53
2019-03-25T07:22:09.572Z,77.69
2019-03-25T07:23:09.505Z,77.15
2019-03-25T07:24:09.430Z,77.34
2019-03-25T07:25:09.358Z,77.34
2019-03-25T07:26:09.301Z,77.34
2019-03-25T07:27:09.234Z,77.87
2019-03-25T07:28:09.163Z,78.01
2019-03-25T07:29:09.160Z,77.72
2019-03-25T07:30:11.274Z,77.82
2019-03-25T07:31:08.934Z,77.15
2019-03-25T07:32:09.110Z,77.34
2019-03-25T07:33:08.796Z,77.06
2019-03-25T07:34:08.739Z,76.77
2019-03-25T07:35:08.667Z,76.96
2019-03-25T07:36:08.586Z,76.77
2019-03-25T07:37:08.511Z,77.06
2019-03-25T07:38:08.458Z,76.33
2019-03-25T07:39:08.634Z,76.39
2019-03-25T07:40:08.425Z,76.96
2019-03-25T07:41:08.302Z,77.15
2019-03-25T07:42:08.440Z,76.67
2019-03-25T07:43:08.091Z,77.15
2019-03-25T07:44:08.812Z,76.86
2019-03-25T07:45:07.955Z,77.53
2019-03-25T07:46:07.895Z,76.96
2019-03-25T07:47:07.823Z,77.06
2019-03-25T07:48:07.754Z,77.15
2019-03-25T07:49:07.683Z,77.53
2019-03-25T07:50:07.605Z,77.63
2019-03-25T07:51:07.539Z,77.34
2019-03-25T07:52:07.477Z,76.96
2019-03-25T07:53:07.406Z,77.15
2019-03-25T07:54:07.329Z,76.71
2019-03-25T07:55:07.260Z,76.14
2019-03-25T07:56:07.194Z,76.23
2019-03-25T07:57:07.116Z,76.33
2019-03-25T07:58:07.062Z,76.71
2019-03-25T07:59:06.989Z,76.42
2019-03-25T08:00:13.401Z,75.95
2019-03-25T08:01:06.863Z,76.14
2019-03-25T08:02:06.805Z,76.33
2019-03-25T08:03:06.702Z,76.71
2019-03-25T08:04:06.639Z,76.52
2019-03-25T08:05:06.567Z,76.42
2019-03-25T08:06:06.485Z,76.90
2019-03-25T08:07:06.438Z,77.19
2019-03-25T08:08:07.495Z,77.28
2019-03-25T08:09:06.291Z,76.90
2019-03-25T08:10:06.213Z,76.42
2019-03-25T08:11:06.150Z,76.23
2019-03-25T08:12:06.076Z,76.90
2019-03-25T08:13:06.041Z,77.00
2019-03-25T08:14:05.944Z,76.71
2019-03-25T08:15:05.869Z,76.42
2019-03-25T08:16:05.829Z,76.33
2019-03-25T08:17:05.729Z,76.04
2019-03-25T08:18:05.644Z,76.14
2019-03-25T08:19:05.578Z,76.42
2019-03-25T08:20:05.511Z,76.04
2019-03-25T08:21:05.439Z,76.04
2019-03-25T08:22:05.380Z,76.33
2019-03-25T08:23:05.306Z,76.62
2019-03-25T08:24:05.229Z,76.42
2019-03-25T08:25:05.159Z,76.33
2019-03-25T08:26:05.106Z,75.89
2019-03-25T08:27:05.036Z,75.31
2019-03-25T08:28:04.961Z,75.51
2019-03-25T08:29:04.895Z,74.93
2019-03-25T08:30:04.809Z,75.12
2019-03-25T08:31:04.741Z,74.93
2019-03-25T08:32:04.673Z,75.12
2019-03-25T08:33:04.606Z,75.22
2019-03-25T08:34:04.546Z,75.02
2019-03-25T08:35:04.476Z,74.55
2019-03-25T08:36:04.402Z,74.65
2019-03-25T08:37:04.562Z,74.58
2019-03-25T08:38:04.258Z,74.01
2019-03-25T08:39:04.189Z,73.72
2019-03-25T08:40:04.135Z,73.24
2019-03-25T08:41:04.048Z,73.82
2019-03-25T08:42:03.981Z,73.44
2019-03-25T08:43:03.983Z,73.63
2019-03-25T08:44:03.843Z,73.54
2019-03-25T08:45:03.778Z,73.34
2019-03-25T08:46:03.715Z,73.54
2019-03-25T08:47:03.651Z,73.66
2019-03-25T08:48:03.577Z,72.61
2019-03-25T08:49:03.524Z,73.09
2019-03-25T08:50:03.431Z,72.67
2019-03-25T08:51:03.363Z,73.15
2019-03-25T08:52:03.297Z,73.15
2019-03-25T08:53:03.228Z,73.63
2019-03-25T08:54:03.167Z,73.54
2019-03-25T08:55:03.101Z,73.15
2019-03-25T08:56:03.020Z,72.58
2019-03-25T08:57:02.949Z,72.52
2019-03-25T08:58:11.613Z,72.23
2019-03-25T08:59:02.825Z,72.38
2019-03-25T09:00:02.761Z,72.19
2019-03-25T09:01:02.690Z,72.32
2019-03-25T09:02:02.611Z,72.23
2019-03-25T09:03:02.540Z,72.23
2019-03-25T09:04:02.487Z,71.56
2019-03-25T09:05:02.416Z,72.13
2019-03-25T09:06:02.335Z,71.08
2019-03-25T09:07:02.266Z,71.66
2019-03-25T09:08:02.196Z,71.94
2019-03-25T09:09:02.132Z,71.84
2019-03-25T09:10:02.070Z,71.08
2019-03-25T09:11:01.998Z,70.98
2019-03-25T09:12:01.925Z,71.37
2019-03-25T09:13:01.853Z,70.92
2019-03-25T09:14:01.796Z,70.60
2019-03-25T09:15:01.731Z,70.41
2019-03-25T09:16:01.668Z,70.41
2019-03-25T09:17:01.599Z,70.41
2019-03-25T09:18:01.514Z,70.60
2019-03-25T09:19:01.448Z,70.50
2019-03-25T09:20:01.379Z,70.70
2019-03-25T09:21:01.309Z,70.70
2019-03-25T09:22:01.258Z,70.70
2019-03-25T09:23:01.183Z,70.44
2019-03-25T09:24:01.139Z,70.31
2019-03-25T09:25:01.046Z,70.21
2019-03-25T09:26:00.967Z,70.03
2019-03-25T09:27:00.915Z,70.15
2019-03-25T09:28:00.844Z,70.25
2019-03-25T09:29:00.761Z,69.68
2019-03-25T09:30:03.189Z,70.03
2019-03-25T09:31:00.630Z,69.58
2019-03-25T09:32:00.561Z,70.31
2019-03-25T09:33:00.501Z,70.31
2019-03-25T09:34:00.430Z,70.15
2019-03-25T09:35:00.384Z,70.25
2019-03-25T09:36:00.408Z,69.96
2019-03-25T09:37:00.215Z,69.87
2019-03-25T09:38:00.151Z,69.87
2019-03-25T09:39:00.081Z,69.87
2019-03-25T09:40:00.020Z,69.48
2019-03-25T09:40:59.960Z,69.20
2019-03-25T09:41:59.891Z,69.29
2019-03-25T09:42:59.811Z,68.91
2019-03-25T09:43:59.741Z,69.10
2019-03-25T09:44:59.688Z,68.72
2019-03-25T09:45:59.618Z,69.01
2019-03-25T09:46:59.552Z,69.10
2019-03-25T09:47:59.486Z,68.72
2019-03-25T09:48:59.401Z,69.01
2019-03-25T09:49:59.347Z,69.48
2019-03-25T09:50:59.267Z,68.52
2019-03-25T09:51:59.193Z,68.66
2019-03-25T09:52:59.140Z,68.75
2019-03-25T09:53:59.077Z,68.72
2019-03-25T09:54:59.012Z,68.62
2019-03-25T09:55:58.945Z,68.62
2019-03-25T09:56:58.857Z,68.52
2019-03-25T09:57:58.792Z,68.72
2019-03-25T09:58:58.736Z,69.04
2019-03-25T09:59:58.665Z,67.99
2019-03-25T10:00:58.588Z,67.22
2019-03-25T10:01:58.519Z,67.60
2019-03-25T10:02:58.451Z,67.12
2019-03-25T10:03:58.387Z,67.89
2019-03-25T10:04:58.328Z,67.22
2019-03-25T10:05:58.257Z,67.35
2019-03-25T10:06:58.187Z,66.74
2019-03-25T10:07:58.113Z,66.67
2019-03-25T10:08:58.063Z,66.77
2019-03-25T10:09:57.988Z,66.16
2019-03-25T10:10:57.922Z,65.88
2019-03-25T10:11:57.858Z,66.55
2019-03-25T10:12:57.773Z,66.06
2019-03-25T10:13:57.701Z,66.74
2019-03-25T10:14:57.648Z,65.78
2019-03-25T10:15:57.583Z,65.88
2019-03-25T10:16:57.501Z,65.39
2019-03-25T10:17:57.435Z,65.97
2019-03-25T10:18:57.367Z,65.39
2019-03-25T10:19:57.304Z,64.53
2019-03-25T10:20:57.237Z,64.37
2019-03-25T10:21:57.170Z,64.15
2019-03-25T10:22:57.164Z,63.76
2019-03-25T10:23:57.040Z,63.57
2019-03-25T10:24:56.959Z,63.57
2019-03-25T10:25:56.889Z,63.57
2019-03-25T10:26:56.825Z,63.29
2019-03-25T10:27:56.754Z,63.22
2019-03-25T10:28:56.701Z,63.70
2019-03-25T10:29:56.626Z,63.03
2019-03-25T10:30:56.555Z,63.32
2019-03-25T10:31:56.488Z,63.03
2019-03-25T10:32:56.428Z,62.65
2019-03-25T10:33:56.359Z,62.84
2019-03-25T10:34:56.298Z,62.74
2019-03-25T10:35:56.225Z,61.75
2019-03-25T10:36:56.147Z,61.78
2019-03-25T10:37:56.083Z,61.78
2019-03-25T10:38:56.034Z,61.56
2019-03-25T10:39:55.957Z,61.66
2019-03-25T10:40:55.875Z,61.78
2019-03-25T10:41:55.806Z,61.49
2019-03-25T10:42:55.741Z,61.46
2019-03-25T10:43:55.670Z,61.59
2019-03-25T10:44:55.616Z,61.40
2019-03-25T10:45:55.545Z,61.78
2019-03-25T10:46:55.469Z,61.49
2019-03-25T10:47:55.403Z,60.72
2019-03-25T10:48:55.342Z,59.96
2019-03-25T10:49:55.285Z,59.77
2019-03-25T10:50:55.215Z,59.19
2019-03-25T10:51:55.138Z,59.19
2019-03-25T10:52:55.061Z,58.23
2019-03-25T10:53:54.995Z,58.33
2019-03-25T10:55:54.894Z,58.14
2019-03-25T10:56:54.798Z,58.14
2019-03-25T10:57:54.735Z,58.23
2019-03-25T10:58:58.217Z,58.52
2019-03-25T10:59:54.606Z,59.00
2019-03-25T11:00:54.519Z,59.09
2019-03-25T11:01:54.452Z,59.09
2019-03-25T11:02:54.394Z,59.09
2019-03-25T11:03:54.331Z,58.33
2019-03-25T11:04:54.250Z,58.14
2019-03-25T11:05:54.181Z,57.46
2019-03-25T11:06:54.109Z,57.65
2019-03-25T11:07:54.046Z,57.65
2019-03-25T11:08:53.989Z,56.60
2019-03-25T11:09:53.919Z,57.28
2019-03-25T11:10:53.844Z,56.60
2019-03-25T11:11:53.771Z,56.70
2019-03-25T11:12:53.722Z,56.51
2019-03-25T11:13:53.646Z,57.08
2019-03-25T11:14:53.583Z,56.51
2019-03-25T11:15:53.517Z,56.79
2019-03-25T11:16:53.435Z,57.46
2019-03-25T11:17:53.369Z,57.28
2019-03-25T11:18:53.310Z,57.37
2019-03-25T11:19:53.244Z,57.08
2019-03-25T11:20:53.161Z,56.60
2019-03-25T11:21:53.097Z,56.51
2019-03-25T11:22:53.031Z,56.51
2019-03-25T11:23:52.959Z,56.12
2019-03-25T11:24:52.906Z,56.41
2019-03-25T11:25:52.841Z,56.12
2019-03-25T11:26:52.772Z,56.41
2019-03-25T11:27:54.538Z,57.46
2019-03-25T11:28:52.622Z,57.46
2019-03-25T11:29:52.559Z,57.18
2019-03-25T11:30:52.489Z,57.40
2019-03-25T11:31:52.422Z,57.11
2019-03-25T11:32:52.364Z,56.63
2019-03-25T11:33:52.301Z,56.34
2019-03-25T11:34:52.215Z,56.05
2019-03-25T11:35:52.159Z,56.31
2019-03-25T11:36:52.092Z,56.73
2019-03-25T11:37:52.026Z,56.34
2019-03-25T11:38:51.960Z,56.31
2019-03-25T11:39:51.899Z,56.31
2019-03-25T11:40:51.813Z,56.12
2019-03-25T11:41:51.738Z,56.31
2019-03-25T11:42:51.675Z,56.02
2019-03-25T11:43:51.609Z,56.12
2019-03-25T11:44:51.551Z,56.79
2019-03-25T11:45:51.478Z,56.51
2019-03-25T11:46:51.419Z,56.60
2019-03-25T11:47:51.351Z,57.18
2019-03-25T11:48:51.285Z,56.51
2019-03-25T11:49:51.201Z,56.31
2019-03-25T11:50:51.145Z,56.24
2019-03-25T11:51:51.083Z,56.34
2019-03-25T11:52:50.999Z,55.57
2019-03-25T11:53:50.929Z,55.29
2019-03-25T11:54:50.863Z,55.29
2019-03-25T11:55:50.793Z,55.29
2019-03-25T11:56:50.737Z,55.77
2019-03-25T11:57:50.704Z,55.29
2019-03-25T11:58:50.602Z,55.10
2019-03-25T11:59:50.539Z,55.10
2019-03-25T12:00:50.458Z,55.10
2019-03-25T12:01:50.388Z,54.71
2019-03-25T12:02:50.317Z,55.47
2019-03-25T12:03:50.251Z,54.90
2019-03-25T12:04:50.209Z,55.00
2019-03-25T12:05:50.130Z,54.71
2019-03-25T12:06:50.047Z,55.29
2019-03-25T12:07:49.980Z,55.19
2019-03-25T12:08:49.924Z,54.80
2019-03-25T12:09:49.852Z,54.78
2019-03-25T12:10:49.790Z,55.07
2019-03-25T12:11:49.719Z,54.58
2019-03-25T12:12:49.641Z,54.78
2019-03-25T12:13:49.705Z,54.01
2019-03-25T12:14:49.518Z,54.21
2019-03-25T12:15:49.452Z,54.01
2019-03-25T12:16:49.369Z,54.04
2019-03-25T12:17:49.307Z,54.39
2019-03-25T12:18:49.241Z,54.01
2019-03-25T12:19:49.181Z,54.42
2019-03-25T12:20:49.109Z,54.23
2019-03-25T12:21:49.068Z,54.01
2019-03-25T12:22:48.962Z,53.91
2019-03-25T12:23:48.926Z,54.33
2019-03-25T12:24:48.840Z,54.04
2019-03-25T12:25:48.769Z,53.56
2019-03-25T12:26:48.704Z,53.46
2019-03-25T12:27:48.630Z,53.36
2019-03-25T12:28:48.559Z,53.17
2019-03-25T12:29:48.487Z,53.08
2019-03-25T12:30:48.415Z,52.40
2019-03-25T12:31:48.375Z,52.48
2019-03-25T12:32:48.290Z,52.95
2019-03-25T12:33:48.226Z,53.94
2019-03-25T12:34:48.159Z,53.08
2019-03-25T12:35:48.089Z,52.67
2019-03-25T12:36:48.009Z,52.38
2019-03-25T12:37:47.940Z,52.38
2019-03-25T12:38:47.883Z,52.57
2019-03-25T12:39:47.820Z,52.57
2019-03-25T12:40:47.765Z,52.95
2019-03-25T12:41:47.671Z,53.05
2019-03-25T12:42:47.602Z,53.05
2019-03-25T12:43:47.529Z,52.67
2019-03-25T12:44:47.472Z,52.95
2019-03-25T12:45:47.410Z,52.67
2019-03-25T12:46:47.339Z,52.98
2019-03-25T12:47:47.274Z,53.08
2019-03-25T12:48:47.191Z,52.60
2019-03-25T12:49:47.117Z,52.57
2019-03-25T12:50:47.051Z,52.50
2019-03-25T12:51:48.505Z,52.40
2019-03-25T12:52:46.930Z,52.12